createdAt,value
2022-10-25T00:01:20.986Z,13.10
2022-10-25T00:07:22.752Z,13.20
2022-10-25T00:13:24.618Z,13.20
2022-10-25T00:19:26.589Z,13.30
2022-10-25T00:25:28.244Z,13.20
2022-10-25T00:31:30.026Z,13.10
2022-10-25T00:37:31.967Z,13.10
2022-10-25T00:43:44.483Z,13.10
2022-10-25T00:49:47.692Z,13.10
2022-10-25T00:55:53.546Z,13.20
2022-10-25T01:01:56.134Z,13.20
2022-10-25T01:07:57.850Z,13.10
2022-10-25T01:13:59.460Z,13.20
2022-10-25T01:20:01.066Z,13.20
2022-10-25T01:26:05.723Z,13.20
2022-10-25T01:32:20.688Z,13.10
2022-10-25T01:38:25.467Z,13.20
2022-10-25T01:44:27.098Z,13.20
2022-10-25T01:50:30.693Z,13.30
2022-10-25T01:56:34.311Z,13.30
2022-10-25T02:02:35.961Z,13.30
2022-10-25T02:08:41.363Z,13.40
2022-10-25T02:14:47.277Z,13.30
2022-10-25T02:20:50.209Z,13.40
2022-10-25T02:26:52.719Z,13.40
2022-10-25T02:32:54.382Z,13.40
2022-10-25T02:38:57.415Z,13.40
2022-10-25T02:44:59.185Z,13.40
2022-10-25T02:51:00.910Z,13.40
2022-10-25T02:57:02.723Z,13.50
2022-10-25T03:03:04.353Z,13.50
2022-10-25T03:09:05.941Z,13.50
2022-10-25T03:15:07.778Z,13.50
2022-10-25T03:21:10.539Z,13.50
2022-10-25T03:27:12.229Z,13.50
2022-10-25T03:33:13.857Z,13.50
2022-10-25T03:39:15.553Z,13.50
2022-10-25T03:45:17.216Z,13.50
2022-10-25T03:51:18.882Z,13.60
2022-10-25T03:57:20.662Z,13.60
2022-10-25T04:03:22.394Z,13.60
2022-10-25T04:09:24.051Z,13.60
2022-10-25T04:15:26.033Z,13.60
2022-10-25T04:21:27.995Z,13.60
2022-10-25T04:27:29.844Z,13.60
2022-10-25T04:33:31.552Z,13.60
2022-10-25T04:39:33.536Z,13.60
2022-10-25T04:45:35.372Z,13.50
2022-10-25T04:51:37.065Z,13.50
2022-10-25T04:57:39.077Z,13.50
2022-10-25T05:03:41.291Z,13.50
2022-10-25T05:09:46.602Z,13.50
2022-10-25T05:15:55.796Z,13.50
2022-10-25T05:21:57.665Z,13.50
2022-10-25T05:27:59.311Z,13.50
2022-10-25T05:34:01.463Z,13.50
2022-10-25T05:40:03.260Z,13.50
2022-10-25T05:46:15.567Z,13.50
2022-10-25T05:52:17.402Z,13.50
2022-10-25T05:58:19.038Z,13.50
2022-10-25T06:04:20.811Z,13.60
2022-10-25T06:10:22.644Z,13.60
2022-10-25T06:16:24.414Z,13.50
2022-10-25T06:22:26.226Z,13.50
2022-10-25T06:28:31.235Z,13.50
2022-10-25T06:34:32.974Z,13.50
2022-10-25T06:40:35.619Z,13.60
2022-10-25T06:47:04.565Z,13.50
2022-10-25T06:53:01.060Z,13.60
2022-10-25T06:59:03.333Z,13.50
2022-10-25T07:05:05.262Z,13.50
2022-10-25T07:11:07.362Z,13.50
2022-10-25T07:17:09.111Z,13.50
2022-10-25T07:23:10.908Z,13.60
2022-10-25T07:29:12.632Z,13.60
2022-10-25T07:35:14.435Z,13.70
2022-10-25T07:41:16.433Z,13.70
2022-10-25T07:47:18.114Z,13.80
2022-10-25T07:53:20.023Z,13.80
2022-10-25T07:59:22.078Z,13.80
2022-10-25T08:05:24.166Z,13.90
2022-10-25T08:11:25.966Z,13.80
2022-10-25T08:17:27.774Z,13.90
2022-10-25T08:23:30.008Z,13.90
2022-10-25T08:29:31.760Z,13.90
2022-10-25T08:35:33.757Z,14.00
2022-10-25T08:41:56.148Z,14.00
2022-10-25T08:48:00.610Z,14.20
2022-10-25T08:54:05.128Z,14.10
2022-10-25T09:00:12.501Z,14.10
2022-10-25T09:06:35.993Z,14.20
2022-10-25T09:12:56.157Z,14.10
2022-10-25T09:18:58.004Z,14.20
2022-10-25T09:25:18.395Z,14.10
2022-10-25T09:31:22.323Z,14.30
2022-10-25T09:37:27.042Z,14.50
2022-10-25T09:43:52.031Z,14.50
2022-10-25T09:50:02.853Z,14.60
2022-10-25T09:56:05.124Z,14.50
2022-10-25T10:02:11.532Z,14.50
2022-10-25T10:08:13.272Z,14.40
2022-10-25T10:14:21.947Z,14.50
2022-10-25T10:20:23.752Z,14.40
2022-10-25T10:26:31.022Z,14.40
2022-10-25T10:32:37.368Z,14.40
2022-10-25T10:38:39.317Z,14.40
2022-10-25T10:44:41.268Z,14.40
2022-10-25T10:50:48.255Z,14.50
2022-10-25T10:56:57.765Z,14.50
2022-10-25T11:02:59.524Z,14.60
2022-10-25T11:09:04.555Z,14.70
2022-10-25T11:15:12.992Z,14.80
2022-10-25T11:21:23.706Z,14.70
2022-10-25T11:27:25.344Z,15.40
2022-10-25T11:33:30.051Z,15.50
2022-10-25T11:39:36.971Z,15.20
2022-10-25T11:45:43.174Z,15.10
2022-10-25T11:52:09.855Z,15.30
2022-10-25T11:58:20.787Z,15.40
2022-10-25T12:04:53.358Z,15.60
2022-10-25T12:10:57.838Z,15.40
2022-10-25T12:17:00.311Z,15.30
2022-10-25T12:23:03.755Z,15.30
2022-10-25T12:29:07.182Z,15.60
2022-10-25T12:35:21.735Z,16.00
2022-10-25T12:41:25.785Z,16.00
2022-10-25T12:47:33.333Z,15.70
2022-10-25T12:53:53.538Z,15.60
2022-10-25T13:00:10.839Z,15.50
2022-10-25T13:06:24.614Z,15.60
2022-10-25T13:12:30.781Z,15.80
2022-10-25T13:18:35.132Z,15.90
2022-10-25T13:24:40.732Z,16.00
2022-10-25T13:30:43.345Z,15.70
2022-10-25T13:36:47.212Z,15.70
2022-10-25T13:42:50.635Z,15.80
2022-10-25T13:48:54.849Z,15.80
2022-10-25T13:54:56.962Z,15.70
2022-10-25T14:01:19.053Z,15.70
2022-10-25T14:07:39.610Z,15.60
2022-10-25T14:13:53.365Z,15.50
2022-10-25T14:20:18.025Z,15.40
2022-10-25T14:26:21.367Z,15.20
2022-10-25T14:32:23.284Z,15.20
2022-10-25T14:38:26.199Z,15.30
2022-10-25T14:44:30.043Z,15.30
2022-10-25T14:50:31.965Z,15.30
2022-10-25T14:56:54.030Z,15.10
2022-10-25T15:02:58.158Z,15.00
2022-10-25T15:09:37.005Z,14.90
2022-10-25T15:15:40.507Z,14.80
2022-10-25T15:21:46.440Z,14.60
2022-10-25T15:27:48.953Z,14.50
2022-10-25T15:33:55.187Z,14.40
2022-10-25T15:39:57.282Z,14.20
2022-10-25T15:45:59.901Z,14.10
2022-10-25T15:52:01.656Z,14.10
2022-10-25T15:58:08.219Z,14.00
2022-10-25T16:04:15.547Z,13.80
2022-10-25T16:10:18.014Z,13.70
2022-10-25T16:16:41.064Z,13.60
2022-10-25T16:22:43.205Z,13.50
2022-10-25T16:28:45.031Z,13.30
2022-10-25T16:34:49.788Z,13.20
2022-10-25T16:40:51.633Z,13.10
2022-10-25T16:46:53.305Z,13.00
2022-10-25T16:52:56.508Z,13.00
2022-10-25T16:58:58.173Z,13.10
2022-10-25T17:05:00.471Z,13.20
2022-10-25T17:11:04.912Z,13.10
2022-10-25T17:17:06.662Z,13.10
2022-10-25T17:23:08.419Z,13.10
2022-10-25T17:29:10.186Z,13.10
2022-10-25T17:35:12.134Z,13.10
2022-10-25T17:41:14.534Z,12.90
2022-10-25T17:47:16.228Z,13.00
2022-10-25T17:53:17.993Z,12.90
2022-10-25T17:59:19.609Z,12.80
2022-10-25T18:05:21.827Z,12.70
2022-10-25T18:11:24.554Z,12.60
2022-10-25T18:17:26.159Z,12.50
2022-10-25T18:23:27.817Z,12.50
2022-10-25T18:29:29.497Z,12.50
2022-10-25T18:35:31.215Z,12.50
2022-10-25T18:41:33.972Z,12.40
2022-10-25T18:47:35.709Z,12.30
2022-10-25T18:53:39.398Z,12.50
2022-10-25T18:59:41.304Z,12.40
2022-10-25T19:05:43.349Z,12.30
2022-10-25T19:11:45.091Z,12.30
2022-10-25T19:17:50.002Z,12.40
2022-10-25T19:23:54.309Z,12.40
2022-10-25T19:29:57.809Z,12.50
2022-10-25T19:36:06.765Z,12.50
2022-10-25T19:42:08.463Z,12.40
2022-10-25T19:48:10.317Z,12.40
2022-10-25T19:54:12.039Z,12.50
2022-10-25T20:00:13.903Z,12.40
2022-10-25T20:06:20.081Z,12.30
2022-10-25T20:12:25.575Z,12.30
2022-10-25T20:18:30.218Z,12.30
2022-10-25T20:24:32.019Z,12.30
2022-10-25T20:30:35.709Z,12.20
2022-10-25T20:36:37.977Z,12.30
2022-10-25T20:42:39.625Z,12.30
2022-10-25T20:48:41.589Z,12.20
2022-10-25T20:54:43.507Z,12.20
2022-10-25T21:00:45.800Z,12.30
2022-10-25T21:06:49.226Z,12.30
2022-10-25T21:12:51.030Z,12.20
2022-10-25T21:18:53.000Z,12.20
2022-10-25T21:24:54.626Z,12.20
2022-10-25T21:30:59.881Z,12.10
2022-10-25T21:37:02.029Z,12.20
2022-10-25T21:43:03.934Z,12.20
2022-10-25T21:49:05.904Z,12.20
2022-10-25T21:55:08.016Z,12.20
2022-10-25T22:01:11.234Z,12.20
2022-10-25T22:07:13.116Z,12.20
2022-10-25T22:13:15.007Z,12.20
2022-10-25T22:19:18.315Z,12.20
2022-10-25T22:25:20.095Z,12.20
2022-10-25T22:31:22.254Z,12.30
2022-10-25T22:37:23.889Z,12.20
2022-10-25T22:43:25.760Z,12.30
2022-10-25T22:49:27.381Z,12.50
2022-10-25T22:55:29.222Z,12.30
2022-10-25T23:01:32.121Z,12.10
2022-10-25T23:07:33.795Z,11.80
2022-10-25T23:13:35.896Z,11.70
2022-10-25T23:19:37.543Z,11.80
2022-10-25T23:25:39.295Z,11.80
2022-10-25T23:31:40.934Z,11.80
2022-10-25T23:37:42.680Z,11.80
2022-10-25T23:43:44.481Z,11.90
2022-10-25T23:49:46.402Z,12.20
2022-10-25T23:55:48.316Z,12.10
